Time;durP1;ratioP1;P1;durP2;ratioP2;P2;SDS_P1;SDS_P2;PMS_P1;PMS_P2;Temp;Humidity;BMP_temperature;BMP_pressure;BME280_temperature;BME280_humidity;BME280_pressure;Samples;Min_cycle;Max_cycle;Signal;HPM_P1;HPM_P2
2022/03/28 00:00:17;;;;;;;16.58;9.25;;;;;;;4.81;70.22;101701.94;4915122;29;20075;-74
2022/03/28 00:02:44;;;;;;;17.05;11.23;;;;;;;4.77;70.38;101694.84;4913966;29;20036;-73
2022/03/28 00:05:16;;;;;;;18.17;10.15;;;;;;;4.80;70.49;101694.06;4915021;29;20096;-73
2022/03/28 00:07:42;;;;;;;20.27;11.45;;;;;;;4.80;71.17;101697.56;4915196;29;20074;-73
2022/03/28 00:10:09;;;;;;;19.67;12.02;;;;;;;4.79;70.93;101695.78;4915209;29;20063;-73
2022/03/28 00:12:35;;;;;;;22.67;11.45;;;;;;;4.80;70.87;101689.72;4915005;29;20032;-73
2022/03/28 00:15:01;;;;;;;16.20;10.85;;;;;;;4.81;71.32;101694.09;4915189;29;20456;-73
2022/03/28 00:17:27;;;;;;;18.90;11.93;;;;;;;4.83;71.94;101688.94;4914975;29;20050;-73
2022/03/28 00:19:52;;;;;;;17.75;11.15;;;;;;;4.86;71.73;101683.81;4915100;29;20066;-73
2022/03/28 00:22:17;;;;;;;17.00;11.38;;;;;;;4.87;71.42;101676.84;4914820;29;20133;-73
2022/03/28 00:24:43;;;;;;;18.30;11.77;;;;;;;4.82;70.76;101677.59;4915146;29;20467;-73
2022/03/28 00:27:08;;;;;;;16.08;10.15;;;;;;;4.75;70.84;101678.19;4915008;29;20032;-73
2022/03/28 00:29:34;;;;;;;17.55;10.35;;;;;;;4.70;70.73;101679.75;4914735;29;20036;-73
2022/03/28 00:31:59;;;;;;;21.33;11.88;;;;;;;4.55;70.75;101677.47;4914717;29;20039;-74
2022/03/28 00:34:24;;;;;;;17.60;11.07;;;;;;;4.48;71.38;101680.72;4914962;29;20036;-73
2022/03/28 00:36:51;;;;;;;19.00;11.27;;;;;;;4.50;71.66;101672.91;4914945;29;20110;-73
2022/03/28 00:39:20;;;;;;;18.08;10.77;;;;;;;4.54;72.21;101672.19;4914834;29;20040;-73
2022/03/28 00:41:51;;;;;;;18.85;11.95;;;;;;;4.56;72.42;101666.19;4914685;29;20099;-74
2022/03/28 00:44:16;;;;;;;17.50;9.88;;;;;;;4.55;72.27;101668.75;4914737;29;20040;-73
2022/03/28 00:46:42;;;;;;;18.63;11.13;;;;;;;4.52;71.92;101671.25;4914675;29;20115;-73
2022/03/28 00:49:08;;;;;;;18.50;11.57;;;;;;;4.51;71.65;101669.47;4914776;29;20044;-73
2022/03/28 00:51:34;;;;;;;21.63;12.98;;;;;;;4.43;71.54;101656.13;4915883;29;20043;-73
2022/03/28 00:54:00;;;;;;;18.20;11.82;;;;;;;4.37;72.13;101656.75;4918587;29;20028;-73
2022/03/28 00:56:25;;;;;;;17.63;11.13;;;;;;;4.33;72.56;101648.78;4918541;29;20514;-73
2022/03/28 00:58:51;;;;;;;17.13;10.90;;;;;;;4.30;72.58;101651.28;4918275;29;20127;-73
2022/03/28 01:01:16;;;;;;;16.65;10.65;;;;;;;4.28;72.58;101643.38;4918105;29;20043;-73
2022/03/28 01:03:42;;;;;;;18.35;12.60;;;;;;;4.26;72.58;101636.31;4918343;29;20036;-73
2022/03/28 01:06:08;;;;;;;18.05;10.98;;;;;;;4.26;72.53;101637.19;4918376;29;20044;-73
2022/03/28 01:08:34;;;;;;;18.10;10.57;;;;;;;4.21;72.43;101640.47;4918235;29;20051;-73
2022/03/28 01:11:04;;;;;;;15.52;10.70;;;;;;;4.14;72.76;101629.78;4918339;29;20403;-74
2022/03/28 01:13:30;;;;;;;17.35;10.70;;;;;;;4.13;72.88;101628.00;4918223;29;20038;-73
2022/03/28 01:15:55;;;;;;;18.90;11.07;;;;;;;4.15;73.33;101620.22;4918086;29;20036;-73
2022/03/28 01:18:22;;;;;;;19.92;11.27;;;;;;;4.16;73.62;101622.00;4918205;29;20145;-73
2022/03/28 01:20:47;;;;;;;15.32;9.77;;;;;;;4.18;73.82;101618.59;4917967;29;20036;-73
2022/03/28 01:23:12;;;;;;;14.88;10.10;;;;;;;4.20;73.70;101616.06;4917825;29;20096;-73
2022/03/28 01:25:38;;;;;;;18.55;11.30;;;;;;;4.16;73.69;101608.94;4918150;29;20131;-73
2022/03/28 01:28:04;;;;;;;17.40;12.05;;;;;;;4.14;73.45;101611.50;4917707;29;20123;-73
2022/03/28 01:30:31;;;;;;;17.08;9.93;;;;;;;4.13;73.73;101603.59;4917712;29;20044;-73
2022/03/28 01:32:59;;;;;;;15.38;9.85;;;;;;;4.14;74.21;101602.78;4913961;29;20048;-73
2022/03/28 01:35:31;;;;;;;14.85;9.65;;;;;;;4.15;74.39;101604.56;4917763;29;20031;-73
2022/03/28 01:37:57;;;;;;;;;;;;;;;4.08;74.71;101594.69;4915523;29;20040;-73
2022/03/28 01:40:23;;;;;;;13.50;8.98;;;;;;;4.09;73.98;101593.88;4916927;29;20010;-73
2022/03/28 01:42:49;;;;;;;16.08;10.15;;;;;;;4.09;74.96;101586.94;4914741;29;20043;-73
2022/03/28 01:45:15;;;;;;;15.75;10.63;;;;;;;4.11;75.08;101584.34;4917653;29;20052;-73
2022/03/28 01:47:41;;;;;;;18.30;11.70;;;;;;;4.13;75.07;101588.81;4917623;29;20107;-73
2022/03/28 01:50:07;;;;;;;16.63;10.07;;;;;;;4.13;75.17;101587.91;4917545;29;20044;-73
2022/03/28 01:52:32;;;;;;;17.60;12.40;;;;;;;4.11;75.12;101586.97;4917397;29;20036;-73
2022/03/28 01:54:57;;;;;;;14.90;9.98;;;;;;;4.09;75.35;101586.03;4917457;29;20419;-73
2022/03/28 01:57:23;;;;;;;17.48;11.13;;;;;;;4.06;75.53;101583.28;4917458;29;20091;-73
2022/03/28 01:59:48;;;;;;;16.30;11.85;;;;;;;4.05;75.50;101584.13;4917172;29;20134;-73
2022/03/28 02:02:13;;;;;;;17.45;11.20;;;;;;;4.05;75.94;101584.13;4917061;29;20130;-73
2022/03/28 02:04:39;;;;;;;16.45;10.27;;;;;;;4.04;76.28;101588.47;4910618;29;20076;-73
2022/03/28 02:07:04;;;;;;;17.58;11.18;;;;;;;4.05;76.71;101577.19;4909898;29;20064;-73
2022/03/28 02:09:29;;;;;;;18.52;11.32;;;;;;;4.06;76.00;101575.47;4917219;29;20143;-74
2022/03/28 02:11:55;;;;;;;16.48;10.65;;;;;;;4.05;76.46;101574.56;4915815;29;20047;-73
2022/03/28 02:14:20;;;;;;;16.60;10.38;;;;;;;4.06;76.61;101567.63;4917180;29;20040;-73
2022/03/28 02:16:45;;;;;;;15.73;10.45;;;;;;;4.05;77.16;101577.19;4917166;29;20042;-73
2022/03/28 02:19:11;;;;;;;14.55;10.82;;;;;;;4.06;77.35;101578.97;4908566;29;20088;-73
2022/03/28 02:21:36;;;;;;;15.13;10.68;;;;;;;4.05;77.20;101577.19;4911913;29;20040;-73
2022/03/28 02:24:01;;;;;;;14.75;10.75;;;;;;;4.01;77.19;101577.91;4921324;29;20118;-73
2022/03/28 02:26:27;;;;;;;17.52;11.35;;;;;;;4.00;77.74;101572.63;4920537;29;20052;-73
2022/03/28 02:28:52;;;;;;;17.10;10.88;;;;;;;3.99;77.41;101576.97;4916509;29;20044;-73
2022/03/28 02:31:17;;;;;;;17.15;10.75;;;;;;;3.95;78.27;101567.22;4916733;29;20039;-72
2022/03/28 02:33:44;;;;;;;18.80;11.93;;;;;;;3.94;78.11;101576.78;4916887;29;20040;-72
2022/03/28 02:36:10;;;;;;;16.17;10.75;;;;;;;3.93;77.65;101564.56;4916906;29;20111;-72
2022/03/28 02:38:35;;;;;;;17.73;11.15;;;;;;;3.90;77.87;101564.47;4916270;29;20122;-72
2022/03/28 02:41:00;;;;;;;15.73;10.50;;;;;;;3.94;78.50;101562.84;4915466;29;20040;-72
2022/03/28 02:43:26;;;;;;;18.15;10.80;;;;;;;3.96;78.41;101558.56;4920369;29;20079;-72
2022/03/28 02:45:51;;;;;;;18.98;11.30;;;;;;;4.01;78.75;101563.94;4918612;29;20075;-72
2022/03/28 02:48:16;;;;;;;14.85;9.40;;;;;;;4.00;78.40;101559.56;4916398;29;20036;-72
2022/03/28 02:50:42;;;;;;;16.75;10.50;;;;;;;4.01;78.08;101563.94;4916212;29;20532;-72
2022/03/28 02:53:07;;;;;;;15.30;10.48;;;;;;;3.97;78.56;101556.84;4916173;29;20495;-72
2022/03/28 02:55:32;;;;;;;17.15;11.02;;;;;;;3.94;78.40;101555.91;4916188;29;20527;-71
2022/03/28 02:57:58;;;;;;;17.75;11.15;;;;;;;3.91;77.76;101550.56;4916034;29;20527;-72
2022/03/28 03:00:23;;;;;;;18.88;11.40;;;;;;;3.85;78.12;101552.03;4916277;29;20082;-72
2022/03/28 03:02:48;;;;;;;15.48;10.63;;;;;;;3.80;77.99;101543.16;4915937;29;20127;-72
2022/03/28 03:05:14;;;;;;;15.85;11.00;;;;;;;3.78;78.74;101552.66;4916155;29;20720;-72
2022/03/28 03:07:40;;;;;;;16.83;11.52;;;;;;;3.73;78.55;101545.53;4916150;29;20040;-72
2022/03/28 03:10:06;;;;;;;16.77;11.05;;;;;;;3.72;79.02;101558.50;4916082;29;20396;-71
2022/03/28 03:12:31;;;;;;;16.25;10.32;;;;;;;3.74;79.07;101549.91;4915664;29;20044;-71
2022/03/28 03:14:57;;;;;;;17.52;11.30;;;;;;;3.77;79.06;101549.13;4916035;29;20039;-72
2022/03/28 03:17:22;;;;;;;15.77;10.50;;;;;;;3.78;78.99;101542.22;4916051;29;20043;-72
2022/03/28 03:19:48;;;;;;;19.95;12.13;;;;;;;3.79;79.37;101534.44;4915898;29;20043;-72
2022/03/28 03:22:16;;;;;;;17.73;11.95;;;;;;;3.82;79.67;101539.75;4915652;29;20115;-71
2022/03/28 03:24:43;;;;;;;19.55;12.85;;;;;;;3.84;79.34;101532.88;4911801;29;20716;-70
2022/03/28 03:27:09;;;;;;;19.38;11.88;;;;;;;3.86;79.34;101530.34;4907914;29;20035;-72
2022/03/28 03:29:35;;;;;;;17.17;11.45;;;;;;;3.88;79.29;101534.78;4913622;29;20510;-72
2022/03/28 03:32:00;;;;;;;16.10;11.63;;;;;;;3.84;78.71;101537.22;4915498;29;20032;-72
2022/03/28 03:34:27;;;;;;;16.30;11.00;;;;;;;3.80;78.64;101536.22;4914079;29;20039;-72
2022/03/28 03:36:53;;;;;;;17.55;11.02;;;;;;;3.77;78.77;101536.09;4915697;29;20044;-73
2022/03/28 03:39:18;;;;;;;18.25;12.43;;;;;;;3.75;78.90;101532.56;4915393;29;20415;-72
2022/03/28 03:41:44;;;;;;;19.08;11.30;;;;;;;3.68;79.07;101527.91;4915276;29;20043;-72
2022/03/28 03:44:09;;;;;;;15.98;11.30;;;;;;;3.64;79.68;101526.00;4915390;29;20103;-73
2022/03/28 03:46:35;;;;;;;17.75;10.43;;;;;;;3.62;79.92;101531.19;4915420;29;20040;-73
2022/03/28 03:49:00;;;;;;;18.95;11.30;;;;;;;3.58;79.66;101529.28;4915370;29;20040;-72
2022/03/28 03:51:25;;;;;;;20.88;12.98;;;;;;;3.54;80.09;101523.88;4915089;29;20035;-73
2022/03/28 03:53:51;;;;;;;17.45;13.40;;;;;;;3.54;81.50;101527.41;4915373;29;20043;-73
2022/03/28 03:56:16;;;;;;;17.45;11.73;;;;;;;3.56;80.91;101519.63;4915247;29;20384;-73
2022/03/28 03:58:42;;;;;;;17.70;11.40;;;;;;;3.61;80.63;101512.84;4915243;29;20055;-73
2022/03/28 04:01:08;;;;;;;18.48;12.38;;;;;;;3.58;80.51;101513.63;4915073;29;20040;-72
2022/03/28 04:03:34;;;;;;;16.83;11.82;;;;;;;3.56;80.56;101517.00;4913306;29;20402;-72
2022/03/28 04:06:00;;;;;;;18.90;12.48;;;;;;;3.58;80.85;101517.97;4914138;29;20047;-73
2022/03/28 04:08:26;;;;;;;18.13;11.70;;;;;;;3.60;80.97;101521.53;4912037;29;20091;-72
2022/03/28 04:10:51;;;;;;;18.92;11.98;;;;;;;3.63;81.56;101509.47;4914954;29;20539;-72
2022/03/28 04:13:17;;;;;;;17.38;12.27;;;;;;;3.66;81.54;101517.41;4911975;29;20046;-72
2022/03/28 04:15:43;;;;;;;21.85;12.55;;;;;;;3.70;81.01;101508.00;4914353;29;20042;-72
2022/03/28 04:18:08;;;;;;;20.58;12.80;;;;;;;3.73;80.66;101503.75;4915070;29;20040;-71
2022/03/28 04:20:34;;;;;;;21.75;12.27;;;;;;;3.77;80.44;101496.91;4914857;29;20036;-72
2022/03/28 04:22:59;;;;;;;15.23;10.38;;;;;;;3.73;80.55;101492.44;4914680;29;20504;-73
2022/03/28 04:25:25;;;;;;;20.58;12.48;;;;;;;3.70;81.07;101498.44;4914903;29;20138;-73
2022/03/28 04:27:50;;;;;;;16.88;11.13;;;;;;;3.72;81.76;101493.25;4913799;29;20032;-73
2022/03/28 04:30:15;;;;;;;16.25;11.32;;;;;;;3.72;81.79;101490.63;4914666;29;20495;-73
2022/03/28 04:32:42;;;;;;;18.58;12.07;;;;;;;3.71;81.16;101494.09;4914029;29;20044;-73
2022/03/28 04:35:09;;;;;;;16.67;11.65;;;;;;;3.70;81.02;101498.44;4910099;29;20126;-73
2022/03/28 04:37:36;;;;;;;22.83;14.98;;;;;;;3.70;81.27;101487.09;4910046;29;20044;-73
2022/03/28 04:40:04;;;;;;;19.33;13.48;;;;;;;3.73;81.67;101489.81;4913151;29;20024;-73
2022/03/28 04:42:30;;;;;;;17.73;11.82;;;;;;;3.77;81.73;101486.47;4914659;29;20172;-73
2022/03/28 04:44:55;;;;;;;22.65;14.20;;;;;;;3.80;81.54;101483.09;4914377;29;20127;-73
2022/03/28 04:47:21;;;;;;;18.02;12.43;;;;;;;3.83;81.92;101488.44;4905354;29;20043;-72
2022/03/28 04:49:46;;;;;;;19.13;13.15;;;;;;;3.81;81.33;101479.66;4904594;29;20088;-73
2022/03/28 04:52:11;;;;;;;20.95;12.88;;;;;;;3.71;81.80;101481.91;4903469;29;20095;-73
2022/03/28 04:54:37;;;;;;;21.92;14.02;;;;;;;3.70;81.56;101479.28;4908615;29;20032;-72
2022/03/28 04:57:05;;;;;;;22.52;12.35;;;;;;;3.76;82.01;101476.88;4914679;29;20172;-73
2022/03/28 04:59:32;;;;;;;20.88;11.98;;;;;;;3.76;81.70;101482.09;4909835;29;20040;-73
2022/03/28 05:01:58;;;;;;;19.10;12.27;;;;;;;3.73;81.10;101474.16;4911839;29;20079;-72
2022/03/28 05:04:23;;;;;;;21.27;13.68;;;;;;;3.72;81.19;101474.97;4913610;29;20055;-71
2022/03/28 05:06:49;;;;;;;16.88;12.35;;;;;;;3.73;81.10;101461.97;4913170;29;20419;-73
2022/03/28 05:09:14;;;;;;;18.20;13.45;;;;;;;3.76;81.52;101471.66;4912015;29;20036;-73
2022/03/28 05:11:39;;;;;;;16.52;12.07;;;;;;;3.79;81.94;101466.53;4914090;29;20036;-72
2022/03/28 05:14:06;;;;;;;20.38;12.32;;;;;;;3.83;81.25;101464.94;4913512;29;20044;-73
2022/03/28 05:16:31;;;;;;;21.63;13.55;;;;;;;3.85;80.86;101471.09;4914647;29;20554;-71
2022/03/28 05:18:57;;;;;;;19.58;14.05;;;;;;;3.94;81.98;101466.22;4914403;29;20055;-73
2022/03/28 05:21:22;;;;;;;24.13;14.73;;;;;;;4.02;82.39;101459.53;4914232;29;20040;-73
2022/03/28 05:23:47;;;;;;;19.40;12.93;;;;;;;4.11;81.74;101464.19;4914569;29;20123;-73
2022/03/28 05:26:12;;;;;;;19.98;13.85;;;;;;;4.25;81.97;101468.19;4914487;29;20093;-72
2022/03/28 05:28:38;;;;;;;19.23;12.50;;;;;;;4.36;81.46;101472.03;4914247;29;20104;-73
2022/03/28 05:31:03;;;;;;;17.60;11.88;;;;;;;4.42;80.60;101473.09;4914323;29;20051;-72
2022/03/28 05:33:28;;;;;;;18.73;12.95;;;;;;;4.45;80.68;101462.72;4914901;29;20036;-72
2022/03/28 05:35:54;;;;;;;18.63;12.27;;;;;;;4.51;80.46;101460.34;4914400;29;20044;-72
2022/03/28 05:38:20;;;;;;;18.30;13.05;;;;;;;4.61;81.24;101465.00;4915282;29;20039;-73
2022/03/28 05:40:45;;;;;;;18.85;13.13;;;;;;;4.67;81.81;101460.00;4917661;29;20047;-72
2022/03/28 05:43:11;;;;;;;21.70;13.90;;;;;;;4.77;81.15;101458.56;4917449;29;20267;-72
2022/03/28 05:45:36;;;;;;;20.52;12.95;;;;;;;4.90;81.10;101457.22;4917674;29;20043;-72
2022/03/28 05:48:03;;;;;;;20.52;13.98;;;;;;;5.04;80.46;101455.94;4916344;29;20052;-73
2022/03/28 05:50:28;;;;;;;19.58;11.98;;;;;;;5.18;80.30;101459.84;4916158;29;20047;-71
2022/03/28 05:52:54;;;;;;;19.60;14.65;;;;;;;5.32;80.25;101459.38;4917235;29;20499;-73
2022/03/28 05:55:20;;;;;;;17.17;12.27;;;;;;;5.44;80.02;101455.41;4917633;29;20501;-73
2022/03/28 05:57:46;;;;;;;18.35;12.55;;;;;;;5.54;79.60;101451.34;4917468;29;20032;-73
2022/03/28 06:00:13;;;;;;;20.73;13.52;;;;;;;5.62;79.55;101447.19;4917354;29;20116;-73
2022/03/28 06:02:39;;;;;;;19.23;13.43;;;;;;;5.74;79.55;101443.13;4917374;29;20087;-72
2022/03/28 06:05:05;;;;;;;20.27;14.25;;;;;;;5.78;79.86;101445.91;4917301;29;20044;-73
2022/03/28 06:07:31;;;;;;;20.65;13.30;;;;;;;5.86;79.29;101443.50;4917210;29;20040;-72
2022/03/28 06:09:56;;;;;;;19.15;12.85;;;;;;;5.99;79.09;101443.00;4917186;29;20123;-72
2022/03/28 06:12:22;;;;;;;16.25;11.98;;;;;;;6.10;78.91;101444.22;4916974;29;20036;-73
2022/03/28 06:14:47;;;;;;;20.63;13.43;;;;;;;6.13;78.31;101439.03;4917278;29;20415;-73
2022/03/28 06:17:20;;;;;;;28.83;18.10;;;;;;;6.25;78.55;101437.59;4917199;29;20040;-72
2022/03/28 06:19:45;;;;;;;22.23;16.15;;;;;;;6.34;78.37;101435.19;4923675;29;20036;-72
2022/03/28 06:22:11;;;;;;;22.95;16.55;;;;;;;6.42;78.11;101436.28;4916849;29;20044;-72
2022/03/28 06:24:36;;;;;;;17.77;12.90;;;;;;;6.48;77.39;101435.56;4910290;29;20062;-73
2022/03/28 06:27:02;;;;;;;20.13;14.80;;;;;;;6.53;77.29;101421.69;4916791;29;20422;-72
2022/03/28 06:29:27;;;;;;;17.45;13.38;;;;;;;6.61;76.97;101411.41;4916717;29;20048;-73
2022/03/28 06:31:53;;;;;;;17.70;12.73;;;;;;;6.68;76.23;101415.94;4916850;29;20036;-73
2022/03/28 06:34:18;;;;;;;17.90;13.18;;;;;;;6.78;76.38;101414.41;4916945;29;20451;-73
2022/03/28 06:36:45;;;;;;;17.08;13.95;;;;;;;6.81;76.05;101406.59;4916712;29;20503;-73
2022/03/28 06:39:11;;;;;;;17.27;14.02;;;;;;;6.90;75.86;101404.22;4916530;29;20040;-73
2022/03/28 06:41:37;;;;;;;20.55;14.45;;;;;;;6.99;75.63;101404.41;4914573;29;20044;-72
2022/03/28 06:44:05;;;;;;;19.80;15.30;;;;;;;7.05;75.68;101414.19;4912842;29;20036;-73
2022/03/28 06:46:31;;;;;;;21.15;14.90;;;;;;;7.17;75.33;101403.91;4916609;29;20100;-73
2022/03/28 06:48:57;;;;;;;16.20;13.15;;;;;;;7.24;75.14;101397.06;4916118;29;20036;-73
2022/03/28 06:51:23;;;;;;;21.00;14.48;;;;;;;7.32;75.10;101392.00;4916155;29;20047;-73
2022/03/28 06:53:49;;;;;;;19.73;15.20;;;;;;;7.38;74.96;101398.22;4916336;29;20492;-73
2022/03/28 06:56:15;;;;;;;22.00;14.82;;;;;;;7.51;74.79;101394.13;4920372;29;20123;-73
2022/03/28 06:58:41;;;;;;;19.38;15.10;;;;;;;7.63;74.18;101397.00;4916414;29;20040;-73
2022/03/28 07:01:07;;;;;;;21.00;16.23;;;;;;;7.68;74.37;101382.22;4916138;29;20039;-73
2022/03/28 07:03:32;;;;;;;20.52;16.23;;;;;;;7.76;74.86;101390.25;4916234;29;20040;-73
2022/03/28 07:05:58;;;;;;;24.23;15.82;;;;;;;7.87;74.36;101388.69;4916268;29;20529;-72
2022/03/28 07:08:23;;;;;;;24.30;17.42;;;;;;;7.96;74.23;101389.72;4916054;29;20055;-73
2022/03/28 07:10:48;;;;;;;24.95;18.02;;;;;;;8.03;73.93;101381.09;4915986;29;20102;-72
2022/03/28 07:13:14;;;;;;;22.45;16.08;;;;;;;8.10;74.24;101385.63;4916154;29;20032;-73
2022/03/28 07:15:39;;;;;;;23.25;17.20;;;;;;;8.16;73.55;101385.72;4916232;29;20036;-73
2022/03/28 07:18:07;;;;;;;25.65;18.45;;;;;;;8.27;73.55;101384.13;4915959;29;20040;-73
2022/03/28 07:20:34;;;;;;;22.08;17.63;;;;;;;8.40;73.84;101379.13;4915827;29;20407;-73
2022/03/28 07:23:00;;;;;;;26.13;18.85;;;;;;;8.54;73.68;101374.94;4915433;29;20036;-73
2022/03/28 07:25:27;;;;;;;22.33;17.60;;;;;;;8.70;73.55;101362.94;4915954;29;20555;-73
2022/03/28 07:27:53;;;;;;;25.75;19.58;;;;;;;8.76;73.21;101370.91;4914534;29;20043;-72
2022/03/28 07:30:20;;;;;;;26.00;21.05;;;;;;;8.86;72.70;101361.41;4915680;29;20043;-73
2022/03/28 07:32:46;;;;;;;27.80;21.05;;;;;;;9.02;72.49;101360.75;4915499;29;20036;-73
2022/03/28 07:35:14;;;;;;;31.15;24.35;;;;;;;9.18;72.28;101354.81;4915723;29;20040;-73
2022/03/28 07:37:40;;;;;;;28.27;23.45;;;;;;;9.35;72.04;101351.50;4915641;29;20039;-73
2022/03/28 07:40:07;;;;;;;29.52;23.92;;;;;;;9.54;71.63;101355.25;4915567;29;20103;-73
2022/03/28 07:42:33;;;;;;;31.00;23.92;;;;;;;9.71;72.10;101344.88;4915255;29;20036;-72
2022/03/28 07:45:00;;;;;;;28.67;24.25;;;;;;;9.76;70.91;101340.53;4915514;29;20044;-70
2022/03/28 07:47:25;;;;;;;31.52;26.25;;;;;;;9.84;70.76;101345.00;4915459;29;20078;-70
2022/03/28 07:49:55;;;;;;;31.83;26.67;;;;;;;9.97;70.94;101338.09;4915346;29;20558;-70
2022/03/28 07:52:21;;;;;;;31.55;26.30;;;;;;;10.07;70.13;101334.69;4911738;29;20091;-70
2022/03/28 07:54:48;;;;;;;33.95;26.80;;;;;;;10.13;69.50;101327.69;4915271;29;20565;-70
2022/03/28 07:57:14;;;;;;;31.17;25.92;;;;;;;10.25;69.44;101322.53;4915153;29;20376;-71
2022/03/28 07:59:45;;;;;;;30.73;25.88;;;;;;;10.41;69.65;101327.06;4915073;29;20108;-70
2022/03/28 08:02:11;;;;;;;28.30;25.23;;;;;;;10.52;69.11;101314.84;4914140;29;20049;-70
2022/03/28 08:04:36;;;;;;;27.23;24.38;;;;;;;10.62;68.95;101320.19;4914804;29;20037;-71
2022/03/28 08:07:05;;;;;;;28.98;25.85;;;;;;;10.73;68.40;101314.06;4915083;29;20067;-70
2022/03/28 08:09:30;;;;;;;31.17;27.23;;;;;;;10.82;68.29;101304.44;4911420;29;20118;-70
2022/03/28 08:11:56;;;;;;;31.90;26.60;;;;;;;11.01;67.69;101297.50;4914781;29;20559;-70
2022/03/28 08:14:22;;;;;;;32.70;27.10;;;;;;;11.13;67.18;101294.91;4915033;29;20514;-71
2022/03/28 08:16:49;;;;;;;32.25;28.83;;;;;;;11.25;66.30;101296.72;4915168;29;20048;-70
2022/03/28 08:19:14;;;;;;;29.13;26.13;;;;;;;11.36;66.25;101290.56;4914777;29;20036;-70
2022/03/28 08:21:39;;;;;;;30.77;27.48;;;;;;;11.43;65.81;101286.19;4914611;29;20043;-70
2022/03/28 08:24:05;;;;;;;30.80;27.58;;;;;;;11.52;65.31;101285.31;4914769;29;20487;-70
2022/03/28 08:26:31;;;;;;;32.20;28.85;;;;;;;11.67;64.83;101284.47;4914948;29;20077;-70
2022/03/28 08:28:56;;;;;;;29.20;26.05;;;;;;;11.76;64.67;101271.25;4914716;29;20411;-71
2022/03/28 08:31:22;;;;;;;30.50;27.30;;;;;;;11.79;64.59;101269.50;4970618;23;20055;-74
2022/03/28 08:33:47;;;;;;;29.58;26.38;;;;;;;11.88;64.29;101273.06;4933862;29;20043;-73
2022/03/28 08:36:12;;;;;;;29.60;26.50;;;;;;;12.02;64.55;101268.66;4933882;29;20047;-73
2022/03/28 08:38:39;;;;;;;30.23;27.05;;;;;;;12.09;63.90;101261.59;4933474;29;20039;-73
2022/03/28 08:41:06;;;;;;;31.58;28.23;;;;;;;12.19;64.30;101264.22;4933339;29;20042;-73
2022/03/28 08:43:32;;;;;;;28.83;25.73;;;;;;;12.30;63.30;101256.28;4933392;29;20086;-74
2022/03/28 08:46:01;;;;;;;29.50;26.33;;;;;;;12.39;64.16;101244.78;4933680;29;20043;-73
2022/03/28 08:48:33;;;;;;;31.67;28.48;;;;;;;12.54;63.48;101242.09;4933586;29;20511;-73
2022/03/28 08:50:58;;;;;;;31.65;27.67;;;;;;;12.66;62.48;101244.72;4932207;29;20510;-73
2022/03/28 08:53:23;;;;;;;34.35;30.63;;;;;;;12.81;62.96;101240.22;4933376;29;20078;-73
2022/03/28 08:55:49;;;;;;;58.75;42.95;;;;;;;12.92;62.95;101239.31;4933606;29;20039;-73
2022/03/28 08:58:14;;;;;;;56.13;42.80;;;;;;;13.03;62.20;101238.38;4933580;29;20046;-74
2022/03/28 09:00:40;;;;;;;30.63;27.50;;;;;;;13.21;62.04;101234.75;4933558;29;20036;-73
2022/03/28 09:03:05;;;;;;;28.85;25.90;;;;;;;13.38;60.39;101232.91;4933354;29;20075;-73
2022/03/28 09:05:38;;;;;;;31.92;28.58;;;;;;;13.48;60.89;101231.09;4933621;29;20050;-73
2022/03/28 09:08:07;;;;;;;30.05;27.15;;;;;;;13.69;60.73;101228.25;4930377;29;20036;-73
2022/03/28 09:10:34;;;;;;;28.30;25.48;;;;;;;13.77;59.99;101230.84;4933231;29;20083;-73
2022/03/28 09:13:05;;;;;;;29.85;26.85;;;;;;;13.87;59.76;101229.88;4935080;29;20028;-73
2022/03/28 09:15:41;;;;;;;29.70;26.63;;;;;;;13.93;58.72;101224.50;4964931;28;20446;-73
2022/03/28 09:18:08;;;;;;;28.42;25.48;;;;;;;13.92;58.27;101221.91;4967923;28;20054;-73
2022/03/28 09:20:35;;;;;;;27.48;24.67;;;;;;;14.06;58.72;101224.41;4937070;29;20029;-73
2022/03/28 09:23:29;;;;;;;29.45;26.58;;;;;;;14.15;57.89;101219.91;4936579;29;20483;-73
2022/03/28 09:25:56;;;;;;;28.75;25.85;;;;;;;14.23;58.25;101218.06;4935109;29;20405;-73
2022/03/28 09:28:46;;;;;;;28.42;25.63;;;;;;;14.36;57.39;101216.16;4967793;28;20054;-73
2022/03/28 09:31:31;;;;;;;27.08;24.27;;;;;;;14.46;56.83;101206.28;4935383;29;20051;-73
2022/03/28 09:33:56;;;;;;;26.55;23.85;;;;;;;14.55;57.00;101198.25;4936802;29;20570;-73
2022/03/28 09:36:41;;;;;;;29.08;26.08;;;;;;;14.65;56.59;101204.34;4936793;29;20035;-73
2022/03/28 09:39:10;;;;;;;28.05;25.08;;;;;;;14.71;56.76;101196.28;4936662;29;20126;-73
2022/03/28 09:41:36;;;;;;;26.75;23.95;;;;;;;14.73;56.39;101191.84;4936393;29;20043;-73
2022/03/28 09:44:01;;;;;;;36.47;32.67;;;;;;;14.83;56.83;101190.81;4936646;29;20445;-73
2022/03/28 09:46:28;;;;;;;27.13;24.02;;;;;;;14.95;56.36;101192.44;4928218;29;20036;-73
2022/03/28 09:48:54;;;;;;;27.10;24.33;;;;;;;15.04;56.16;101178.16;4936421;29;20043;-74
2022/03/28 09:51:23;;;;;;;26.88;24.25;;;;;;;15.20;55.83;101168.16;4935087;29;20031;-74
2022/03/28 09:53:49;;;;;;;28.70;25.75;;;;;;;15.28;55.32;101166.25;4936511;29;20046;-74
2022/03/28 09:56:14;;;;;;;27.05;24.25;;;;;;;15.26;54.62;101160.97;4936426;29;20055;-73
2022/03/28 09:58:56;;;;;;;24.40;21.88;;;;;;;15.42;54.14;101168.69;4936370;29;20032;-74
2022/03/28 10:01:30;;;;;;;23.10;20.80;;;;;;;15.56;54.20;101164.91;4936133;29;20081;-73
2022/03/28 10:04:03;;;;;;;24.83;22.38;;;;;;;15.59;52.80;101153.34;4933700;29;20040;-74
2022/03/28 10:06:29;;;;;;;24.42;21.17;;;;;;;15.58;53.22;101146.25;4936320;29;20042;-74
2022/03/28 10:08:55;;;;;;;25.85;23.15;;;;;;;15.65;53.54;101147.03;4932504;29;20442;-73
2022/03/28 10:11:21;;;;;;;22.33;20.02;;;;;;;15.70;53.46;101146.09;4934671;29;20040;-73
2022/03/28 10:13:47;;;;;;;23.15;20.65;;;;;;;15.74;53.20;101137.13;4967092;28;20083;-74
2022/03/28 10:16:13;;;;;;;23.38;20.77;;;;;;;15.87;52.60;101136.91;4936160;29;20048;-74
2022/03/28 10:18:42;;;;;;;24.67;22.05;;;;;;;15.98;52.68;101134.91;4935958;29;20070;-74
2022/03/28 10:21:15;;;;;;;24.83;22.33;;;;;;;15.93;52.81;101136.81;4935616;29;20058;-73
2022/03/28 10:23:50;;;;;;;25.02;22.42;;;;;;;15.89;53.28;101125.34;4935438;29;20044;-74
2022/03/28 10:26:18;;;;;;;25.05;22.52;;;;;;;16.17;52.97;101130.16;4924980;29;20466;-73
2022/03/28 10:28:59;;;;;;;26.30;23.55;;;;;;;16.32;52.39;101121.84;4935911;29;20044;-74
2022/03/28 10:31:25;;;;;;;23.25;20.85;;;;;;;16.35;53.10;101126.25;4933358;29;20047;-74
2022/03/28 10:33:53;;;;;;;23.40;20.88;;;;;;;16.34;52.48;101116.47;4935667;29;20122;-73
2022/03/28 10:36:30;;;;;;;24.25;21.48;;;;;;;16.44;52.38;101121.56;4935620;29;20058;-74
2022/03/28 10:39:29;;;;;;;23.83;21.33;;;;;;;16.58;51.90;101121.31;4935719;29;20040;-74
2022/03/28 10:42:04;;;;;;;22.85;20.50;;;;;;;16.65;51.58;101116.69;4931786;29;20043;-74
2022/03/28 10:44:43;;;;;;;23.27;20.98;;;;;;;16.71;51.24;101111.22;4935584;29;20139;-74
2022/03/28 10:47:08;;;;;;;23.98;20.77;;;;;;;16.78;51.00;101104.88;4932837;29;20043;-74
2022/03/28 10:49:34;;;;;;;21.90;19.70;;;;;;;16.82;50.81;101098.59;4935509;29;20039;-73
2022/03/28 10:52:02;;;;;;;22.92;19.85;;;;;;;16.88;51.13;101096.69;4935145;29;20040;-73
2022/03/28 10:54:37;;;;;;;23.73;20.77;;;;;;;16.84;50.33;101087.88;4931781;29;20118;-74
2022/03/28 10:57:04;;;;;;;23.83;19.70;;;;;;;16.94;50.30;101081.41;4935354;29;20043;-74
2022/03/28 10:59:30;;;;;;;22.33;20.02;;;;;;;17.02;50.70;101078.56;4935382;29;20394;-74
2022/03/28 11:01:56;;;;;;;22.20;19.92;;;;;;;16.97;50.08;101069.78;4934896;29;20148;-74
2022/03/28 11:04:23;;;;;;;22.85;20.60;;;;;;;17.03;50.28;101059.88;4935046;29;20039;-74
2022/03/28 11:07:00;;;;;;;20.52;17.83;;;;;;;17.20;48.89;101080.78;4935239;29;20087;-73
2022/03/28 11:09:45;;;;;;;19.92;17.45;;;;;;;17.16;48.93;101068.44;4932498;29;20095;-73
2022/03/28 11:12:27;;;;;;;21.67;19.35;;;;;;;17.26;48.55;101059.28;4931427;29;20131;-74
2022/03/28 11:14:53;;;;;;;;;;;;;;;17.33;48.14;101056.47;4935408;29;20435;-73